Time;durP1;ratioP1;P1;durP2;ratioP2;P2;SDS_P1;SDS_P2;PMS_P1;PMS_P2;Temp;Humidity;BMP_temperature;BMP_pressure;BME280_temperature;BME280_humidity;BME280_pressure;Samples;Min_cycle;Max_cycle;Signal;HPM_P1;HPM_P2
2021/08/08 00:02:15;;;;;;;1.35;0.60;;;18.00;99.90;;;;;;4986311;28;20565;-77
2021/08/08 00:04:41;;;;;;;0.65;0.55;;;18.10;99.90;;;;;;4986215;28;20246;-77
2021/08/08 00:07:06;;;;;;;1.33;0.55;;;18.10;99.90;;;;;;4986464;28;20200;-76
2021/08/08 00:09:32;;;;;;;0.93;0.60;;;18.10;99.90;;;;;;4987029;28;20208;-77
2021/08/08 00:11:57;;;;;;;0.50;0.50;;;18.10;99.90;;;;;;4986272;28;20188;-77
2021/08/08 00:14:23;;;;;;;0.52;0.50;;;18.10;99.90;;;;;;4985312;28;20184;-77
2021/08/08 00:16:49;;;;;;;0.60;0.50;;;18.10;99.90;;;;;;4986292;28;20200;-76
2021/08/08 00:19:15;;;;;;;0.98;0.60;;;18.10;99.90;;;;;;4985346;28;20579;-76
2021/08/08 00:21:41;;;;;;;0.50;0.45;;;18.10;99.90;;;;;;4986573;28;20184;-77
2021/08/08 00:24:06;;;;;;;0.93;0.50;;;18.20;99.90;;;;;;4985234;28;20188;-76
2021/08/08 00:26:32;;;;;;;0.50;0.43;;;18.10;99.90;;;;;;4985221;28;20613;-77
2021/08/08 00:28:58;;;;;;;0.30;0.30;;;18.10;99.90;;;;;;4985908;28;20212;-76
2021/08/08 00:31:24;;;;;;;0.75;0.75;;;18.10;99.90;;;;;;4984819;28;20190;-77
2021/08/08 00:33:53;;;;;;;0.52;0.52;;;18.00;99.90;;;;;;4985764;28;20269;-77
2021/08/08 00:36:20;;;;;;;0.95;0.43;;;18.00;99.90;;;;;;4985905;28;20216;-77
2021/08/08 00:38:47;;;;;;;1.20;0.50;;;17.90;99.90;;;;;;4985520;28;20192;-77
2021/08/08 00:41:13;;;;;;;0.82;0.40;;;17.90;99.90;;;;;;4983993;28;20625;-76
2021/08/08 00:43:38;;;;;;;0.50;0.50;;;17.90;99.90;;;;;;4985015;28;20187;-78
2021/08/08 00:46:04;;;;;;;0.50;0.50;;;17.90;99.90;;;;;;4985929;28;20184;-77
2021/08/08 00:48:30;;;;;;;0.30;0.30;;;17.90;99.90;;;;;;4985308;28;20211;-77
2021/08/08 00:50:55;;;;;;;0.43;0.40;;;17.90;99.90;;;;;;4985804;28;20176;-76
2021/08/08 00:53:21;;;;;;;0.50;0.50;;;17.80;99.90;;;;;;4984974;28;20191;-76
2021/08/08 00:55:47;;;;;;;0.70;0.40;;;17.80;99.90;;;;;;4984438;28;20181;-77
2021/08/08 00:58:12;;;;;;;0.75;0.43;;;17.80;99.90;;;;;;4985296;28;20279;-77
2021/08/08 01:00:40;;;;;;;0.40;0.40;;;17.70;99.90;;;;;;4985539;28;20268;-77
2021/08/08 01:03:09;;;;;;;0.40;0.40;;;17.70;99.90;;;;;;4985234;28;20275;-77
2021/08/08 01:05:49;;;;;;;0.60;0.40;;;17.60;99.90;;;;;;4985634;28;20658;-77
2021/08/08 01:08:32;;;;;;;0.60;0.30;;;17.60;99.90;;;;;;4983700;28;21225;-77
2021/08/08 01:11:00;;;;;;;0.95;0.40;;;17.50;99.90;;;;;;4985708;28;20188;-77
2021/08/08 01:13:26;;;;;;;0.47;0.40;;;17.50;99.90;;;;;;4985081;28;20191;-77
2021/08/08 01:15:52;;;;;;;0.22;0.22;;;17.40;99.90;;;;;;4985619;28;20212;-77
2021/08/08 01:18:17;;;;;;;0.30;0.30;;;17.40;99.90;;;;;;4984693;28;20338;-77
2021/08/08 01:20:46;;;;;;;0.40;0.30;;;17.40;99.90;;;;;;4985367;28;20273;-77
2021/08/08 01:23:14;;;;;;;0.60;0.30;;;17.30;99.90;;;;;;4984677;28;20192;-77
2021/08/08 01:25:43;;;;;;;0.20;0.20;;;17.30;99.90;;;;;;5000046;28;20569;-77
2021/08/08 01:28:09;;;;;;;0.43;0.43;;;17.30;99.90;;;;;;4984541;28;20230;-77
2021/08/08 01:30:35;;;;;;;0.70;0.30;;;17.20;99.90;;;;;;4985894;28;20184;-77
2021/08/08 01:33:08;;;;;;;1.42;0.47;;;17.30;99.90;;;;;;4984294;28;20176;-77
2021/08/08 01:35:34;;;;;;;0.52;0.22;;;17.20;99.90;;;;;;4984684;28;20490;-77
2021/08/08 01:38:00;;;;;;;0.45;0.30;;;17.10;99.90;;;;;;4984438;28;20200;-77
2021/08/08 01:40:36;;;;;;;0.38;0.28;;;17.10;99.90;;;;;;4985349;28;20180;-77
2021/08/08 01:43:06;;;;;;;0.77;0.20;;;17.10;99.90;;;;;;4983922;28;20176;-77
2021/08/08 01:45:34;;;;;;;0.40;0.38;;;17.00;99.90;;;;;;4984814;28;20183;-77
2021/08/08 01:48:03;;;;;;;0.22;0.22;;;17.00;99.90;;;;;;4983973;28;20204;-77
2021/08/08 01:50:31;;;;;;;0.20;0.20;;;17.00;99.90;;;;;;4983080;28;20188;-77
2021/08/08 01:53:01;;;;;;;0.30;0.30;;;17.00;99.90;;;;;;4983496;28;20195;-77
2021/08/08 01:55:28;;;;;;;0.20;0.20;;;16.90;99.90;;;;;;4984195;28;20180;-77
2021/08/08 01:57:55;;;;;;;0.20;0.20;;;16.90;99.90;;;;;;4984641;28;20196;-77
2021/08/08 02:00:23;;;;;;;0.20;0.20;;;16.80;99.90;;;;;;4982540;28;20184;-77
2021/08/08 02:02:58;;;;;;;0.20;0.20;;;16.80;99.90;;;;;;4982428;28;20888;-76
2021/08/08 02:05:29;;;;;;;0.60;0.30;;;16.80;99.90;;;;;;4984504;28;20180;-77
2021/08/08 02:07:54;;;;;;;0.20;0.20;;;16.60;99.90;;;;;;4982623;28;20200;-77
2021/08/08 02:10:20;;;;;;;1.08;0.20;;;16.60;99.90;;;;;;4983837;28;20215;-77
2021/08/08 02:12:46;;;;;;;0.20;0.20;;;16.60;99.90;;;;;;4983986;28;20211;-76
2021/08/08 02:15:13;;;;;;;0.22;0.22;;;16.60;99.90;;;;;;4983589;28;20190;-77
2021/08/08 02:17:40;;;;;;;0.20;0.20;;;16.50;99.90;;;;;;4983812;28;20757;-77
2021/08/08 02:20:09;;;;;;;0.20;0.20;;;16.50;99.90;;;;;;4984046;28;20662;-77
2021/08/08 02:22:35;;;;;;;0.20;0.20;;;16.50;99.90;;;;;;4983889;28;20531;-77
2021/08/08 02:25:01;;;;;;;0.50;0.40;;;16.40;99.90;;;;;;4983610;28;20419;-77
2021/08/08 02:27:26;;;;;;;0.22;0.22;;;16.30;99.90;;;;;;4982340;28;20226;-77
2021/08/08 02:29:52;;;;;;;0.55;0.30;;;16.30;99.90;;;;;;4983766;28;20214;-77
2021/08/08 02:32:18;;;;;;;1.45;0.40;;;16.30;99.90;;;;;;4983895;28;20707;-77
2021/08/08 02:34:43;;;;;;;0.28;0.20;;;16.30;99.90;;;;;;4981797;28;20183;-77
2021/08/08 02:37:10;;;;;;;0.40;0.40;;;16.30;99.90;;;;;;4983399;28;20235;-77
2021/08/08 02:39:35;;;;;;;0.30;0.20;;;16.20;99.90;;;;;;4984291;28;20180;-77
2021/08/08 02:42:01;;;;;;;0.13;0.13;;;16.20;99.90;;;;;;4983428;28;20223;-77
2021/08/08 02:44:27;;;;;;;1.17;0.40;;;16.20;99.90;;;;;;4983641;28;20222;-76
2021/08/08 02:46:53;;;;;;;0.20;0.20;;;16.20;99.90;;;;;;4983234;28;20243;-77
2021/08/08 02:49:19;;;;;;;0.30;0.30;;;16.20;99.90;;;;;;4983687;28;20211;-77
2021/08/08 02:51:45;;;;;;;0.50;0.40;;;16.10;99.90;;;;;;4984038;28;20185;-77
2021/08/08 02:54:14;;;;;;;0.30;0.30;;;16.10;99.90;;;;;;4981861;28;20180;-77
2021/08/08 02:56:40;;;;;;;0.30;0.30;;;16.10;99.90;;;;;;4982355;28;20192;-76
2021/08/08 02:59:05;;;;;;;0.30;0.30;;;16.00;99.90;;;;;;4983127;28;20184;-76
2021/08/08 03:01:31;;;;;;;0.20;0.20;;;16.00;99.90;;;;;;4983785;28;20184;-77
2021/08/08 03:03:56;;;;;;;0.30;0.30;;;16.00;99.90;;;;;;4983862;28;20238;-75
2021/08/08 03:06:22;;;;;;;0.30;0.30;;;15.90;99.90;;;;;;4987611;28;20282;-77
2021/08/08 03:08:48;;;;;;;0.45;0.20;;;15.90;99.90;;;;;;4986577;28;20211;-76
2021/08/08 03:11:13;;;;;;;1.52;0.55;;;15.90;99.90;;;;;;4987516;28;20255;-76
2021/08/08 03:13:39;;;;;;;0.40;0.40;;;15.90;99.90;;;;;;4986698;28;20215;-77
2021/08/08 03:16:05;;;;;;;1.05;0.55;;;15.70;99.90;;;;;;4987277;28;20439;-76
2021/08/08 03:18:31;;;;;;;0.30;0.30;;;15.70;99.90;;;;;;4987034;28;20596;-77
2021/08/08 03:20:57;;;;;;;0.30;0.30;;;15.60;99.90;;;;;;4986772;28;20180;-76
2021/08/08 03:23:22;;;;;;;0.20;0.20;;;15.60;99.90;;;;;;4987027;28;20247;-77
2021/08/08 03:25:48;;;;;;;0.28;0.28;;;15.60;99.90;;;;;;4986763;28;20723;-77
2021/08/08 03:28:13;;;;;;;0.63;0.30;;;15.70;99.90;;;;;;4985199;28;20240;-77
2021/08/08 03:30:39;;;;;;;0.30;0.30;;;15.80;99.90;;;;;;4986825;28;20297;-77
2021/08/08 03:33:05;;;;;;;0.20;0.20;;;15.80;99.90;;;;;;4987050;28;20180;-77
2021/08/08 03:35:30;;;;;;;0.30;0.30;;;15.80;99.90;;;;;;4986997;28;20180;-77
2021/08/08 03:37:56;;;;;;;0.43;0.32;;;15.90;99.90;;;;;;4986485;28;20255;-77
2021/08/08 03:40:22;;;;;;;0.30;0.30;;;15.80;99.90;;;;;;4986857;28;20191;-77
2021/08/08 03:42:48;;;;;;;0.30;0.30;;;15.90;99.90;;;;;;4984978;28;20226;-77
2021/08/08 03:45:13;;;;;;;0.30;0.30;;;15.90;99.90;;;;;;4986661;28;20188;-77
2021/08/08 03:47:39;;;;;;;0.40;0.40;;;15.90;99.90;;;;;;4986417;28;20291;-77
2021/08/08 03:50:06;;;;;;;0.38;0.38;;;16.00;99.90;;;;;;4986535;28;20227;-77
2021/08/08 03:52:31;;;;;;;0.55;0.43;;;16.00;99.90;;;;;;4986423;28;20184;-77
2021/08/08 03:54:57;;;;;;;0.30;0.30;;;16.00;99.90;;;;;;4986634;28;20195;-77
2021/08/08 03:57:23;;;;;;;0.30;0.30;;;16.00;99.90;;;;;;4986242;28;21260;-77
2021/08/08 03:59:48;;;;;;;0.25;0.20;;;16.00;99.90;;;;;;4984718;28;20686;-77
2021/08/08 04:02:14;;;;;;;0.40;0.30;;;16.00;99.90;;;;;;4985712;28;20176;-77
2021/08/08 04:04:39;;;;;;;0.20;0.20;;;16.10;99.90;;;;;;4984993;28;20279;-77
2021/08/08 04:07:05;;;;;;;0.90;0.40;;;16.10;99.90;;;;;;4986390;28;20574;-77
2021/08/08 04:09:30;;;;;;;0.20;0.20;;;16.10;99.90;;;;;;4986475;28;20212;-77
2021/08/08 04:11:56;;;;;;;0.40;0.40;;;16.20;99.90;;;;;;4984972;28;20526;-77
2021/08/08 04:14:22;;;;;;;0.65;0.30;;;16.20;99.90;;;;;;4985790;28;20256;-76
2021/08/08 04:16:47;;;;;;;0.60;0.40;;;16.30;99.90;;;;;;4984456;28;20573;-77
2021/08/08 04:19:13;;;;;;;0.40;0.32;;;16.40;99.90;;;;;;4984558;28;20519;-77
2021/08/08 04:21:39;;;;;;;0.45;0.45;;;16.50;99.90;;;;;;4986076;28;20244;-77
2021/08/08 04:24:04;;;;;;;0.63;0.43;;;16.50;99.90;;;;;;4980434;28;20639;-77
2021/08/08 04:26:30;;;;;;;0.85;0.30;;;16.60;99.90;;;;;;4985712;28;20216;-77
2021/08/08 04:28:55;;;;;;;0.35;0.30;;;16.60;99.90;;;;;;4983346;28;20266;-77
2021/08/08 04:31:21;;;;;;;0.65;0.30;;;16.70;99.90;;;;;;4984470;28;20203;-77
2021/08/08 04:33:47;;;;;;;0.40;0.40;;;16.80;99.90;;;;;;4983542;28;20194;-77
2021/08/08 04:36:12;;;;;;;0.57;0.40;;;16.90;99.90;;;;;;4984351;28;20219;-77
2021/08/08 04:38:39;;;;;;;0.32;0.32;;;16.90;99.90;;;;;;4985227;28;20238;-77
2021/08/08 04:41:05;;;;;;;0.75;0.30;;;17.00;99.90;;;;;;4985518;28;20184;-77
2021/08/08 04:43:30;;;;;;;0.30;0.30;;;17.10;99.90;;;;;;4985273;28;20703;-77
2021/08/08 04:45:56;;;;;;;0.45;0.45;;;17.10;99.90;;;;;;4983938;28;20215;-77
2021/08/08 04:48:22;;;;;;;0.30;0.30;;;17.20;99.90;;;;;;4985071;28;20639;-75
2021/08/08 04:50:48;;;;;;;0.30;0.30;;;17.20;99.90;;;;;;4985174;28;20184;-77
2021/08/08 04:53:17;;;;;;;0.30;0.30;;;17.30;99.90;;;;;;4985146;28;20188;-77
2021/08/08 04:55:44;;;;;;;0.40;0.40;;;17.30;99.90;;;;;;4983733;28;20275;-77
2021/08/08 04:58:10;;;;;;;0.50;0.50;;;17.30;99.90;;;;;;4985065;28;20247;-77
2021/08/08 05:00:36;;;;;;;1.30;0.40;;;17.40;99.90;;;;;;4985324;28;20234;-77
2021/08/08 05:03:02;;;;;;;0.65;0.43;;;17.40;99.90;;;;;;4984568;28;20181;-77
2021/08/08 05:05:29;;;;;;;0.35;0.28;;;17.50;99.90;;;;;;4984713;28;20210;-77
2021/08/08 05:07:55;;;;;;;0.30;0.30;;;17.60;99.90;;;;;;4985390;28;20204;-77
2021/08/08 05:10:24;;;;;;;0.43;0.40;;;17.50;99.90;;;;;;4984961;28;20219;-77
2021/08/08 05:12:50;;;;;;;0.40;0.40;;;17.50;99.90;;;;;;4983940;28;20188;-77
2021/08/08 05:15:16;;;;;;;0.30;0.30;;;17.60;99.90;;;;;;4984752;28;20239;-77
2021/08/08 05:17:42;;;;;;;0.60;0.47;;;17.70;99.90;;;;;;4985751;28;20595;-77
2021/08/08 05:20:08;;;;;;;0.30;0.30;;;17.80;99.90;;;;;;4983788;28;20275;-77
2021/08/08 05:22:34;;;;;;;0.35;0.30;;;18.00;99.90;;;;;;4985640;28;20272;-77
2021/08/08 05:25:00;;;;;;;1.27;0.50;;;18.20;99.90;;;;;;4984528;28;20184;-77
2021/08/08 05:27:26;;;;;;;0.40;0.40;;;18.30;99.90;;;;;;4984982;28;20231;-77
2021/08/08 05:29:51;;;;;;;0.30;0.30;;;19.00;99.90;;;;;;4982987;28;20234;-77
2021/08/08 05:32:17;;;;;;;0.80;0.40;;;20.10;99.90;;;;;;4983960;28;20182;-77
2021/08/08 05:34:42;;;;;;;1.25;0.47;;;21.30;99.90;;;;;;4984706;28;20238;-77
2021/08/08 05:37:08;;;;;;;1.00;0.30;;;21.90;99.90;;;;;;4985015;28;20255;-77
2021/08/08 05:39:33;;;;;;;1.67;0.30;;;22.20;99.90;;;;;;4983104;28;20274;-76
2021/08/08 05:41:59;;;;;;;0.25;0.25;;;21.50;99.90;;;;;;4985475;28;20196;-77
2021/08/08 05:44:25;;;;;;;0.45;0.40;;;20.80;99.90;;;;;;4984391;28;20718;-77
2021/08/08 05:46:50;;;;;;;0.40;0.30;;;20.10;99.90;;;;;;4984978;28;20204;-77
2021/08/08 05:49:16;;;;;;;0.30;0.30;;;19.80;99.90;;;;;;4984281;28;20200;-77
2021/08/08 05:51:42;;;;;;;0.50;0.50;;;19.90;99.90;;;;;;4983682;28;20223;-77
2021/08/08 05:54:08;;;;;;;0.50;0.50;;;19.70;99.90;;;;;;4984225;28;20659;-77
2021/08/08 05:56:33;;;;;;;0.60;0.60;;;19.30;99.90;;;;;;4984235;28;20716;-77
2021/08/08 05:58:59;;;;;;;1.85;0.60;;;19.10;99.90;;;;;;4984407;28;20200;-77
2021/08/08 06:01:25;;;;;;;0.40;0.40;;;18.80;99.90;;;;;;4984395;28;20196;-77
2021/08/08 06:03:50;;;;;;;0.93;0.50;;;18.50;99.90;;;;;;4984270;28;20187;-77
2021/08/08 06:06:16;;;;;;;0.55;0.40;;;18.70;99.90;;;;;;4983544;28;20659;-77
2021/08/08 06:08:42;;;;;;;1.17;0.47;;;19.00;99.90;;;;;;4984319;28;21119;-77
2021/08/08 06:11:08;;;;;;;0.40;0.40;;;19.30;99.90;;;;;;4984043;28;20184;-77
2021/08/08 06:13:34;;;;;;;0.30;0.30;;;19.30;99.90;;;;;;4982910;28;20266;-76
2021/08/08 06:15:59;;;;;;;2.53;0.80;;;19.40;99.90;;;;;;4983960;28;20238;-77
2021/08/08 06:18:25;;;;;;;1.65;0.85;;;19.40;99.90;;;;;;4983834;28;20255;-77
2021/08/08 06:20:51;;;;;;;0.30;0.30;;;19.50;99.90;;;;;;4984122;28;20188;-77
2021/08/08 06:23:17;;;;;;;0.47;0.47;;;19.40;99.90;;;;;;4983314;28;20970;-76
2021/08/08 06:25:42;;;;;;;0.43;0.30;;;19.50;99.90;;;;;;4983629;28;20186;-77
2021/08/08 06:28:08;;;;;;;0.40;0.40;;;19.40;99.90;;;;;;4984149;28;20222;-77
2021/08/08 06:30:34;;;;;;;0.55;0.50;;;19.50;99.90;;;;;;4983850;28;20674;-76
2021/08/08 06:32:59;;;;;;;0.57;0.35;;;19.40;99.90;;;;;;4984174;28;20184;-77
2021/08/08 06:35:25;;;;;;;0.50;0.50;;;19.40;99.90;;;;;;4983845;28;20172;-77
2021/08/08 06:37:50;;;;;;;0.63;0.40;;;19.40;99.90;;;;;;4983841;28;20203;-77
2021/08/08 06:40:16;;;;;;;0.88;0.40;;;19.30;99.90;;;;;;4985316;28;20188;-77
2021/08/08 06:42:42;;;;;;;0.50;0.50;;;19.10;99.90;;;;;;4986653;28;20184;-77
2021/08/08 06:45:08;;;;;;;0.57;0.50;;;19.10;99.90;;;;;;4987514;28;20814;-77
2021/08/08 06:47:34;;;;;;;0.77;0.70;;;19.10;99.90;;;;;;4986486;28;20204;-77
2021/08/08 06:49:59;;;;;;;0.80;0.50;;;19.00;99.90;;;;;;4987183;28;20215;-77
2021/08/08 06:52:25;;;;;;;0.40;0.40;;;19.00;99.90;;;;;;4988011;28;20667;-77
2021/08/08 06:54:50;;;;;;;0.85;0.52;;;18.90;99.90;;;;;;4986765;28;20176;-77
2021/08/08 06:57:26;;;;;;;2.60;0.50;;;19.10;99.90;;;;;;4987477;28;20251;-77
2021/08/08 06:59:52;;;;;;;0.70;0.55;;;19.20;99.90;;;;;;4986794;28;20175;-76
2021/08/08 07:02:18;;;;;;;1.02;0.50;;;19.30;99.90;;;;;;4986012;28;20187;-77
2021/08/08 07:04:43;;;;;;;0.55;0.55;;;19.40;99.90;;;;;;4986867;28;20219;-77
2021/08/08 07:07:09;;;;;;;0.65;0.40;;;19.40;99.90;;;;;;4986083;28;20806;-77
2021/08/08 07:09:35;;;;;;;0.60;0.50;;;19.70;99.90;;;;;;4985795;28;20212;-77
2021/08/08 07:12:00;;;;;;;0.80;0.60;;;19.80;99.90;;;;;;4986345;28;20529;-77
2021/08/08 07:14:28;;;;;;;1.15;0.70;;;19.90;99.90;;;;;;4987291;28;20180;-77
2021/08/08 07:16:54;;;;;;;0.30;0.30;;;20.20;99.90;;;;;;4987175;28;20196;-77
2021/08/08 07:19:19;;;;;;;1.33;0.70;;;20.50;99.90;;;;;;4987172;28;20192;-77
2021/08/08 07:21:45;;;;;;;0.40;0.40;;;20.90;99.90;;;;;;4986431;28;20291;-77
2021/08/08 07:24:11;;;;;;;0.95;0.60;;;21.40;99.90;;;;;;4986847;28;20212;-76
2021/08/08 07:26:36;;;;;;;1.20;0.70;;;21.50;99.90;;;;;;4987746;28;20213;-77
2021/08/08 07:29:02;;;;;;;2.00;0.90;;;21.30;99.90;;;;;;4986458;28;20223;-77
2021/08/08 07:31:27;;;;;;;0.70;0.70;;;21.00;99.90;;;;;;4986211;28;20186;-77
2021/08/08 07:33:54;;;;;;;0.38;0.30;;;20.80;99.90;;;;;;4986548;28;20238;-77
2021/08/08 07:36:19;;;;;;;0.73;0.73;;;20.90;99.90;;;;;;4985733;28;20188;-77
2021/08/08 07:38:45;;;;;;;0.77;0.60;;;20.90;99.90;;;;;;4986949;28;20184;-77
2021/08/08 07:41:11;;;;;;;0.57;0.55;;;20.90;99.90;;;;;;4987009;28;20192;-77
2021/08/08 07:43:38;;;;;;;1.05;0.60;;;20.80;99.90;;;;;;4986290;28;20187;-76
2021/08/08 07:46:03;;;;;;;1.30;0.40;;;20.90;99.90;;;;;;4985892;28;20220;-77
2021/08/08 07:48:29;;;;;;;1.50;0.70;;;21.30;99.90;;;;;;4986342;28;20289;-77
2021/08/08 07:50:55;;;;;;;0.52;0.52;;;21.30;99.90;;;;;;4986501;28;20566;-77
2021/08/08 07:53:20;;;;;;;0.40;0.40;;;21.00;99.90;;;;;;4985089;28;20181;-77
2021/08/08 07:55:49;;;;;;;0.85;0.77;;;20.80;99.90;;;;;;4986176;28;20259;-77
2021/08/08 07:58:15;;;;;;;0.40;0.40;;;20.80;99.90;;;;;;4986307;28;20204;-77
2021/08/08 08:00:41;;;;;;;0.55;0.40;;;21.20;99.90;;;;;;4986502;28;20614;-77
2021/08/08 08:03:06;;;;;;;1.15;0.50;;;21.90;99.90;;;;;;4986420;28;20208;-76
2021/08/08 08:05:32;;;;;;;1.15;0.52;;;22.50;99.90;;;;;;4986523;28;20236;-77
2021/08/08 08:07:58;;;;;;;1.15;0.47;;;22.60;99.90;;;;;;4986414;28;20735;-77
2021/08/08 08:10:23;;;;;;;0.93;0.52;;;22.30;99.90;;;;;;4986334;28;20208;-77
2021/08/08 08:12:49;;;;;;;0.63;0.47;;;22.30;99.90;;;;;;4986094;28;20196;-77
2021/08/08 08:15:14;;;;;;;1.08;0.52;;;22.30;99.90;;;;;;4985871;28;20744;-77
2021/08/08 08:17:40;;;;;;;1.48;0.45;;;22.20;99.90;;;;;;4984785;28;20741;-77
2021/08/08 08:20:06;;;;;;;0.68;0.50;;;21.90;99.90;;;;;;4986284;28;20721;-76
2021/08/08 08:22:31;;;;;;;0.88;0.70;;;21.70;99.90;;;;;;4985068;28;20216;-76
2021/08/08 08:24:57;;;;;;;1.63;0.80;;;22.00;99.90;;;;;;4986239;28;20673;-77
2021/08/08 08:27:23;;;;;;;2.50;0.90;;;22.30;99.90;;;;;;4986309;28;20315;-77
2021/08/08 08:29:48;;;;;;;0.28;0.20;;;22.50;99.90;;;;;;4985445;28;20310;-77
2021/08/08 08:32:14;;;;;;;0.55;0.45;;;22.50;99.90;;;;;;4985934;28;20184;-77
2021/08/08 08:34:39;;;;;;;0.40;0.40;;;22.40;99.90;;;;;;4984857;28;20588;-77
2021/08/08 08:37:05;;;;;;;0.50;0.50;;;21.90;99.90;;;;;;4985889;28;20530;-77
2021/08/08 08:39:30;;;;;;;0.38;0.38;;;21.60;99.90;;;;;;4989185;28;20279;-77
2021/08/08 08:41:59;;;;;;;0.40;0.40;;;21.40;99.90;;;;;;4990339;28;20184;-79
2021/08/08 08:44:25;;;;;;;1.13;0.40;;;21.30;99.90;;;;;;4989079;28;20181;-78
2021/08/08 08:46:55;;;;;;;0.60;0.60;;;21.20;99.90;;;;;;4986026;28;20526;-77
2021/08/08 08:49:21;;;;;;;0.65;0.63;;;21.10;99.90;;;;;;4986962;28;20619;-76
2021/08/08 08:52:01;;;;;;;0.82;0.40;;;21.10;99.90;;;;;;4988192;28;20192;-77
2021/08/08 08:54:29;;;;;;;0.40;0.40;;;20.90;99.90;;;;;;5001885;28;20184;-78
2021/08/08 08:56:57;;;;;;;1.88;0.47;;;20.90;99.90;;;;;;4987490;28;20203;-76
2021/08/08 08:59:23;;;;;;;0.45;0.40;;;20.80;99.90;;;;;;4986361;28;20401;-76
2021/08/08 09:01:50;;;;;;;2.50;0.85;;;21.00;99.90;;;;;;4987669;28;20199;-76
2021/08/08 09:04:16;;;;;;;1.17;0.60;;;21.10;99.90;;;;;;4987116;28;20593;-77
2021/08/08 09:06:43;;;;;;;1.00;0.52;;;21.20;99.90;;;;;;4987030;28;20223;-76
2021/08/08 09:09:09;;;;;;;1.27;0.70;;;21.30;99.90;;;;;;4987107;28;20220;-77
2021/08/08 09:11:43;;;;;;;0.80;0.52;;;21.40;99.90;;;;;;4986749;28;20276;-76
2021/08/08 09:14:10;;;;;;;0.75;0.55;;;21.60;99.90;;;;;;4986966;28;20203;-76
2021/08/08 09:16:42;;;;;;;2.47;0.50;;;21.60;99.90;;;;;;4985090;28;20196;-77
2021/08/08 09:19:34;;;;;;;0.63;0.63;;;21.70;99.90;;;;;;4987782;28;20204;-76
2021/08/08 09:22:00;;;;;;;0.52;0.52;;;21.70;99.90;;;;;;4987683;28;20184;-78
2021/08/08 09:24:32;;;;;;;0.68;0.60;;;21.60;99.90;;;;;;4987338;28;20199;-77
2021/08/08 09:27:12;;;;;;;0.50;0.45;;;21.50;99.90;;;;;;4986435;28;20202;-77
2021/08/08 09:29:41;;;;;;;0.68;0.45;;;21.50;99.90;;;;;;4985252;28;20623;-77
2021/08/08 09:32:07;;;;;;;1.75;0.73;;;21.60;99.90;;;;;;4986132;28;20244;-76
2021/08/08 09:34:39;;;;;;;2.15;0.50;;;21.70;99.90;;;;;;4986476;28;20184;-77
2021/08/08 09:37:17;;;;;;;1.13;0.55;;;21.70;99.90;;;;;;4985522;28;20196;-78
2021/08/08 09:39:44;;;;;;;0.45;0.45;;;22.10;99.90;;;;;;4985793;28;20208;-77
2021/08/08 09:42:42;;;;;;;0.65;0.52;;;22.30;99.90;;;;;;4987600;28;20191;-77
2021/08/08 09:45:08;;;;;;;0.93;0.57;;;22.60;99.90;;;;;;4986147;28;20298;-76
2021/08/08 09:47:38;;;;;;;2.08;0.60;;;22.70;99.90;;;;;;4987399;28;20331;-78
2021/08/08 09:50:07;;;;;;;1.05;0.75;;;22.60;99.90;;;;;;4986341;28;20327;-76
2021/08/08 09:52:35;;;;;;;0.50;0.50;;;22.20;99.90;;;;;;4987270;28;20180;-76
2021/08/08 09:55:01;;;;;;;0.47;0.40;;;21.80;99.90;;;;;;4986134;28;20230;-76
2021/08/08 09:57:38;;;;;;;0.40;0.40;;;21.40;99.90;;;;;;4987366;28;20626;-77
2021/08/08 10:00:04;;;;;;;2.03;0.60;;;21.10;99.90;;;;;;4986533;28;20242;-78
2021/08/08 10:02:30;;;;;;;0.93;0.63;;;20.90;99.90;;;;;;4986482;28;20840;-78
2021/08/08 10:04:56;;;;;;;0.60;0.50;;;20.80;99.90;;;;;;4984398;28;20245;-78
2021/08/08 10:07:21;;;;;;;0.57;0.57;;;20.90;99.90;;;;;;4986592;28;20208;-76
2021/08/08 10:09:51;;;;;;;1.05;0.90;;;21.00;99.90;;;;;;4986687;28;20208;-77
2021/08/08 10:12:22;;;;;;;0.80;0.57;;;21.30;99.90;;;;;;4986555;28;20187;-77
2021/08/08 10:14:51;;;;;;;0.88;0.70;;;21.60;99.90;;;;;;4985590;28;20191;-77
2021/08/08 10:17:18;;;;;;;0.68;0.60;;;22.00;99.90;;;;;;4986512;28;20298;-76
2021/08/08 10:19:46;;;;;;;1.35;0.70;;;22.20;99.90;;;;;;4984748;28;20210;-76
2021/08/08 10:22:14;;;;;;;0.80;0.80;;;22.50;99.90;;;;;;4985718;28;20188;-76
2021/08/08 10:24:40;;;;;;;2.35;0.60;;;22.80;99.90;;;;;;4986222;28;20528;-76
2021/08/08 10:27:05;;;;;;;0.65;0.45;;;23.00;99.90;;;;;;4986249;28;20216;-77
2021/08/08 10:29:32;;;;;;;0.40;0.40;;;23.00;99.90;;;;;;4986346;28;20688;-77
2021/08/08 10:31:57;;;;;;;1.05;0.70;;;22.90;99.90;;;;;;4986307;28;20268;-77
2021/08/08 10:34:30;;;;;;;0.60;0.60;;;22.20;99.90;;;;;;4984149;28;20274;-78
2021/08/08 10:37:14;;;;;;;0.63;0.63;;;22.20;99.90;;;;;;4986059;28;20235;-78
2021/08/08 10:39:47;;;;;;;1.00;0.57;;;22.10;99.90;;;;;;4985850;28;20184;-77
2021/08/08 10:42:13;;;;;;;0.90;0.50;;;21.90;99.90;;;;;;4985859;28;20544;-76
2021/08/08 10:44:49;;;;;;;1.20;0.60;;;21.90;99.90;;;;;;4985797;28;20183;-77
2021/08/08 10:47:25;;;;;;;0.50;0.43;;;21.90;99.90;;;;;;4985888;28;20199;-78
2021/08/08 10:49:51;;;;;;;0.47;0.30;;;22.00;99.90;;;;;;4984808;28;20279;-78
2021/08/08 10:52:16;;;;;;;0.47;0.47;;;22.00;99.90;;;;;;4986073;28;20180;-77
2021/08/08 10:54:47;;;;;;;0.45;0.45;;;22.00;99.90;;;;;;4985227;28;20720;-78
2021/08/08 10:57:15;;;;;;;0.47;0.43;;;22.20;99.90;;;;;;4985401;28;20231;-77
2021/08/08 10:59:43;;;;;;;0.80;0.55;;;22.20;99.90;;;;;;4985426;28;20210;-77
2021/08/08 11:02:16;;;;;;;1.63;0.80;;;22.30;99.90;;;;;;4985616;28;20267;-76
2021/08/08 11:04:43;;;;;;;1.20;0.68;;;22.20;99.90;;;;;;4985620;28;20646;-77
2021/08/08 11:07:09;;;;;;;1.38;0.50;;;22.20;99.90;;;;;;4985367;28;20619;-76
2021/08/08 11:09:36;;;;;;;1.30;0.65;;;22.10;99.90;;;;;;4985549;28;20208;-78
2021/08/08 11:12:02;;;;;;;1.00;0.50;;;22.40;99.90;;;;;;4985364;28;20184;-76
2021/08/08 11:14:28;;;;;;;0.40;0.40;;;22.50;99.90;;;;;;4985398;28;20721;-77
2021/08/08 11:16:58;;;;;;;0.70;0.40;;;22.70;99.90;;;;;;4985457;28;20253;-77
2021/08/08 11:19:38;;;;;;;0.40;0.40;;;22.90;99.90;;;;;;4983844;28;20192;-77
2021/08/08 11:22:09;;;;;;;0.77;0.60;;;22.80;99.90;;;;;;4985300;28;20220;-78
2021/08/08 11:24:34;;;;;;;0.65;0.50;;;22.80;99.90;;;;;;4985328;28;20188;-78
2021/08/08 11:27:00;;;;;;;1.25;0.75;;;22.60;99.90;;;;;;4987755;28;20207;-76
2021/08/08 11:29:26;;;;;;;0.40;0.40;;;22.60;99.90;;;;;;4989311;28;20220;-77
2021/08/08 11:31:58;;;;;;;0.65;0.50;;;22.90;99.90;;;;;;4988648;28;20212;-78
2021/08/08 11:34:24;;;;;;;0.75;0.70;;;23.10;99.90;;;;;;4988767;28;20611;-77
2021/08/08 11:36:50;;;;;;;0.82;0.50;;;23.10;99.90;;;;;;4989028;28;20454;-77
2021/08/08 11:39:17;;;;;;;0.47;0.47;;;23.10;99.90;;;;;;4988953;28;20188;-77
2021/08/08 11:41:43;;;;;;;1.15;0.55;;;23.50;99.90;;;;;;4988991;28;20631;-78
2021/08/08 11:44:14;;;;;;;0.70;0.55;;;23.30;99.90;;;;;;4988696;28;20180;-77
2021/08/08 11:46:52;;;;;;;0.52;0.38;;;22.90;99.90;;;;;;4988924;28;20208;-75
2021/08/08 11:49:19;;;;;;;1.00;0.60;;;22.60;99.90;;;;;;4988777;28;20196;-77
2021/08/08 11:52:01;;;;;;;0.30;0.30;;;22.70;99.90;;;;;;4988779;28;20273;-77
2021/08/08 11:54:29;;;;;;;0.77;0.52;;;22.70;99.90;;;;;;4988721;28;20592;-77
2021/08/08 11:56:56;;;;;;;0.60;0.60;;;22.70;99.90;;;;;;4988884;28;20215;-77
2021/08/08 11:59:29;;;;;;;1.27;0.60;;;22.70;99.90;;;;;;4986951;28;20184;-78
2021/08/08 12:02:05;;;;;;;0.40;0.40;;;22.80;99.90;;;;;;5003234;28;20222;-77
2021/08/08 12:04:36;;;;;;;0.50;0.50;;;23.00;99.90;;;;;;4987928;28;20606;-78
2021/08/08 12:07:04;;;;;;;2.22;0.82;;;23.40;99.90;;;;;;4988140;28;20212;-76
2021/08/08 12:09:30;;;;;;;0.75;0.47;;;23.70;99.60;;;;;;4985349;28;20859;-77
2021/08/08 12:11:57;;;;;;;1.02;0.82;;;23.70;98.60;;;;;;4986571;28;20180;-77
2021/08/08 12:14:38;;;;;;;1.48;0.75;;;23.60;98.70;;;;;;4986464;28;20180;-77
2021/08/08 12:17:30;;;;;;;1.67;0.60;;;23.60;99.70;;;;;;4988300;28;21437;-77
2021/08/08 12:19:58;;;;;;;0.85;0.50;;;23.90;99.10;;;;;;4988108;28;20200;-76
2021/08/08 12:22:31;;;;;;;1.23;0.70;;;23.80;99.80;;;;;;4988196;28;20645;-77
2021/08/08 12:25:16;;;;;;;1.00;0.73;;;23.90;99.90;;;;;;4987732;28;20235;-76
2021/08/08 12:27:46;;;;;;;0.80;0.57;;;23.70;99.80;;;;;;4988139;28;20219;-78
2021/08/08 12:30:13;;;;;;;0.85;0.80;;;23.60;99.90;;;;;;4987867;28;20208;-77
2021/08/08 12:32:40;;;;;;;0.45;0.40;;;23.80;99.60;;;;;;4988611;28;20187;-76
2021/08/08 12:35:11;;;;;;;0.95;0.60;;;24.00;99.20;;;;;;4987421;28;20176;-76
2021/08/08 12:37:38;;;;;;;0.50;0.47;;;24.10;98.60;;;;;;4986521;28;20386;-76
2021/08/08 12:40:16;;;;;;;1.83;0.60;;;23.90;99.80;;;;;;4988228;28;20190;-77
2021/08/08 12:42:42;;;;;;;0.60;0.60;;;23.60;99.90;;;;;;4988174;28;20200;-78
2021/08/08 12:45:14;;;;;;;0.50;0.50;;;23.30;99.90;;;;;;4986003;28;20332;-77
2021/08/08 12:47:46;;;;;;;0.55;0.52;;;23.00;99.90;;;;;;4987604;28;20219;-77
2021/08/08 12:50:22;;;;;;;1.05;0.65;;;22.90;99.90;;;;;;4987311;28;20385;-77